West Plains, MO

1:01 AM CDT on August 01, 2014 (GMT -0500)
West Plains Municipal (KUNO) Elev 1227 ft | 36.88 °N, 91.91 °W | Change Station

Current weather conditions updated 8 minutes ago

Fog
Fog
60 °F
Feels Like 60 °F
N
4
Wind Variable Wind from North

Today is forecast to be Warmer than yesterday. Scattered thunderstorms possible.

Today
High -- | Low -- °F
--% Chance of Precip.
Yesterday
High -- | Low -- °F
Precip. -- in
6:13 AM 8:14 PM
Waxing Crescent, 24% visible
Pressure 30.08 in
Visibility 0.5 miles
Clouds
Dew Point 58 °F
Humidity 93%
Rainfall 0.00 in
Snow Depth Not available.
UV Not available.
Pollen 3.60 out of 12
Air Quality Not available.
Flu Activity Not available.
METAR KUNO 010553Z AUTO 35003KT 1/2SM FG VV001 16/14 A3010 RMK AO2 SLP184 T01560144 10228 20156 402500156 50000

More Conditions Fewer Conditions

Pressure 30.08 in
Visibility 0.5 miles
Clouds
Dew Point 58 °F
Humidity 93%
Rainfall 0.00 in
Snow Depth Not available.
UV Not available.
Pollen 3.60 out of 12
Air Quality Not available.
Flu Activity Not available.
METAR KUNO 010553Z AUTO 35003KT 1/2SM FG VV001 16/14 A3010 RMK AO2 SLP184 T01560144 10228 20156 402500156 50000

More Conditions Fewer Conditions

10-Day Weather Forecast

Almanac

Astronomy

Aug. 01, 2014 Rise Set
Actual Time 6:13 AM CDT 8:14 PM CDT
Civil Twilight 5:44 AM CDT 8:42 PM CDT
Nautical Twilight 5:09 AM CDT 9:17 PM CDT
Astronomical Twilight 4:31 AM CDT 9:55 PM CDT
Moon 11:28 AM CDT 11:08 PM CDT
Length of Visible Light 14h 58m
Length of Day
14h 01m
Tomorrow will be 1m 46s shorter.
Waxing Crescent, 24% of the Moon is Illuminated
Today
Waxing Crescent
Aug 3
First Quarter
Aug 10
Full
Aug 17
Last Quarter
Aug 25
New

Today's Extremes

State Highs State Lows

Community

WunderPhotos

Upload Photos

1,739,522 photos uploaded!

Nearby

Snow Depth

Station Depth Elevation
No new snow has been reported.

Earthquake Activity

City Distance Mag. Time & Date
No recent earthquake activity has been reported nearby.
Minimum magnitude displayed is 2.5.

Coastal Water Temperatures

Place Temperature
No Stations Reporting

Nearby Weather Stations

Station Location Temp. Dew Point Humidity Wind Precip. Elev Updated Type
West Plains, MO 61.7 °F 61 °F 99% ENE  at  0.0 mph - / hr 1024 ft 11:55 PM MDT Normal
Cedar Lane, West Plains, MO 64.7 °F 58 °F 79% SW  at  0.0 mph 0.00 in / hr 1068 ft 1:01 AM CDT Rapid Fire
Quail Run, West Plains, MO 65.7 °F 63 °F 92% SSE  at  0.0 mph 0.01 in / hr 1138 ft 1:00 AM CDT Rapid Fire
Pierce Township Texas County, Willow Springs, MO 62.6 °F 59 °F 89% South  at  0.0 mph - / hr 1364 ft 10:39 PM CDT Normal
Country, Elk Creek, MO 63.9 °F 60 °F 87% SSW  at  0.0 mph 0.00 in / hr 1332 ft 12:57 AM CDT Normal
Trail Hollow, DORA, MO 60.5 °F 60 °F 97% North  at  0.6 mph 0.00 in / hr 958 ft 1:01 AM CDT Rapid Fire
Vanzant, MO, Missouri, MO 62.4 °F 62 °F 98% South  at  0.0 mph 0.00 in / hr 1191 ft 1:01 AM CDT Rapid Fire

Show More Stations Show Fewer Stations